Time;durP1;ratioP1;P1;durP2;ratioP2;P2;SDS_P1;SDS_P2;PMS_P1;PMS_P2;Temp;Humidity;BMP_temperature;BMP_pressure;BME280_temperature;BME280_humidity;BME280_pressure;Samples;Min_cycle;Max_cycle;Signal;HPM_P1;HPM_P2
2022/02/04 00:07:59;;;;;;;45.07;21.97;;;;;;;5.01;100.00;100239.95;5145747;57;1143250;-72
2022/02/04 00:23:33;;;;;;;47.87;20.90;;;;;;;4.99;100.00;100241.81;5112108;57;1141135;-71
2022/02/04 00:33:51;;;;;;;47.20;24.47;;;;;;;5.01;100.00;100250.42;5120061;57;1141396;-71
2022/02/04 00:38:58;;;;;;;46.80;21.70;;;;;;;5.05;100.00;100239.27;5121443;57;1141103;-69
2022/02/04 00:44:05;;;;;;;46.80;23.12;;;;;;;5.08;100.00;100245.65;5121207;57;1141141;-67
2022/02/04 01:26:39;;;;;;;30.27;15.05;;;;;;;5.02;100.00;100203.63;5038780;58;1143229;-71
2022/02/04 01:31:45;;;;;;;43.77;23.83;;;;;;;5.01;100.00;100195.86;5038509;58;1143290;-69
2022/02/04 01:36:51;;;;;;;45.63;20.33;;;;;;;5.01;100.00;100177.05;5039048;58;1143467;-71
2022/02/04 01:41:57;;;;;;;47.53;20.67;;;;;;;5.03;100.00;100179.11;5039321;58;1143262;-72
2022/02/04 01:47:04;;;;;;;41.30;20.23;;;;;;;5.02;100.00;100168.72;5034859;58;1143633;-71
2022/02/04 01:52:11;;;;;;;56.30;25.07;;;;;;;5.02;100.00;100172.18;5038995;58;1143386;-71
2022/02/04 01:57:17;;;;;;;49.43;22.33;;;;;;;5.01;100.00;100161.32;5039003;58;1143242;-68
2022/02/04 02:02:24;;;;;;;41.13;22.63;;;;;;;5.04;100.00;100155.05;5036660;58;1143514;-69
2022/02/04 02:07:32;;;;;;;39.57;21.17;;;;;;;5.06;100.00;100146.60;5029053;58;1143333;-68
2022/02/04 02:13:06;;;;;;;31.97;16.47;;;;;;;5.06;100.00;100146.14;5029080;58;1143246;-70
2022/02/04 02:45:17;;;;;;;34.90;17.30;;;;;;;5.16;100.00;100143.35;5106419;58;1141436;-67
2022/02/04 02:55:26;;;;;;;26.67;15.43;;;;;;;5.18;100.00;100145.87;5106124;58;1141124;-71
2022/02/04 03:05:28;;;;;;;22.50;13.57;;;;;;;5.10;100.00;100142.88;5106415;57;1139209;-68
2022/02/04 03:10:34;;;;;;;23.77;14.90;;;;;;;5.06;100.00;100138.74;5106220;57;1138879;-68
2022/02/04 03:15:40;;;;;;;23.93;13.90;;;;;;;5.06;100.00;100136.13;5106045;58;1143095;-71
2022/02/04 03:20:55;;;;;;;22.93;14.75;;;;;;;5.05;100.00;100132.66;5105956;57;1143754;-70
2022/02/04 03:25:58;;;;;;;24.03;13.13;;;;;;;5.06;100.00;100141.36;5070654;57;1143528;-67
2022/02/04 03:31:02;;;;;;;24.47;14.00;;;;;;;5.03;100.00;100146.81;5077496;58;1143220;-72
2022/02/04 03:36:08;;;;;;;28.70;16.40;;;;;;;5.02;100.00;100147.28;5069596;58;1143324;-70
2022/02/04 03:41:13;;;;;;;27.77;16.57;;;;;;;4.99;100.00;100149.23;5067649;58;1143150;-69
2022/02/04 03:46:19;;;;;;;28.43;16.40;;;;;;;4.95;100.00;100152.50;5067399;58;1143303;-70
2022/02/04 03:51:24;;;;;;;31.57;18.07;;;;;;;4.95;100.00;100153.34;5067418;58;1143485;-71
2022/02/04 03:56:31;;;;;;;26.67;16.17;;;;;;;4.93;100.00;100141.27;5067436;58;1143415;-70
2022/02/04 04:01:37;;;;;;;37.45;19.32;;;;;;;4.97;100.00;100140.62;5067034;58;1143279;-68
2022/02/04 04:06:42;;;;;;;29.47;18.33;;;;;;;4.98;100.00;100136.60;5067276;58;1143448;-67
2022/02/04 04:11:49;;;;;;;32.17;16.63;;;;;;;5.00;100.00;100133.89;5077409;58;1143282;-68
2022/02/04 04:16:55;;;;;;;33.53;19.40;;;;;;;4.99;100.00;100129.12;5077354;58;1143137;-72
2022/02/04 04:22:00;;;;;;;30.60;16.27;;;;;;;5.03;100.00;100120.61;5089705;57;1143360;-71
2022/02/04 04:27:06;;;;;;;30.43;14.50;;;;;;;5.05;100.00;100113.47;5165668;57;1143302;-72
2022/02/04 04:32:13;;;;;;;37.23;17.77;;;;;;;5.03;100.00;100117.52;5165812;57;1143557;-72
2022/02/04 04:37:19;;;;;;;35.70;18.97;;;;;;;5.01;100.00;100105.44;5165747;57;1143127;-72
2022/02/04 04:42:48;;;;;;;30.73;17.53;;;;;;;5.04;100.00;100093.47;5165823;57;1143199;-70
2022/02/04 05:30:26;;;;;;;28.50;16.07;;;;;;;5.05;100.00;100099.05;5114054;57;1141145;-71
2022/02/04 05:35:31;;;;;;;29.60;19.07;;;;;;;5.06;100.00;100092.41;5055052;57;1141152;-70
2022/02/04 05:40:41;;;;;;;37.63;20.47;;;;;;;5.06;100.00;100098.95;5048948;57;1141445;-72
2022/02/04 05:45:55;;;;;;;45.00;23.23;;;;;;;5.04;100.00;100100.83;5016264;58;1141077;-71
2022/02/04 05:51:08;;;;;;;33.40;17.73;;;;;;;5.04;100.00;100096.90;4987895;58;1141145;-70
2022/02/04 05:56:26;;;;;;;37.70;19.93;;;;;;;5.07;100.00;100098.49;4988090;58;1139127;-71
2022/02/04 06:12:23;;;;;;;37.57;19.13;;;;;;;5.08;100.00;100093.63;4987287;58;1143401;-70
2022/02/04 06:22:28;;;;;;;32.55;19.10;;;;;;;5.10;100.00;100104.39;5042334;57;1143303;-68
2022/02/04 06:27:34;;;;;;;32.83;19.00;;;;;;;5.10;100.00;100103.09;5080479;57;1143211;-71
2022/02/04 06:32:42;;;;;;;33.93;20.13;;;;;;;5.10;100.00;100104.39;5135883;57;1143179;-71
2022/02/04 06:37:48;;;;;;;30.53;18.80;;;;;;;5.10;100.00;100116.19;5133821;57;1143193;-69
2022/02/04 06:42:55;;;;;;;38.80;21.37;;;;;;;5.11;100.00;100126.20;5134617;57;1143619;-70
2022/02/04 06:52:58;;;;;;;31.30;18.10;;;;;;;5.16;100.00;100130.24;5344066;55;46176;-69
2022/02/04 06:58:06;;;;;;;35.60;20.50;;;;;;;5.13;100.00;100125.66;5102563;57;1139414;-70
2022/02/04 07:03:13;;;;;;;33.87;17.90;;;;;;;5.12;100.00;100126.12;5101281;57;1143326;-67
2022/02/04 07:08:25;;;;;;;30.80;18.17;;;;;;;5.10;100.00;100123.21;5175923;57;1143284;-69
2022/02/04 07:13:40;;;;;;;21.77;14.27;;;;;;;5.13;100.00;100128.27;5106218;57;1142988;-69
2022/02/04 07:24:01;;;;;;;39.15;19.98;;;;;;;5.16;100.00;100128.09;5082282;57;1143252;-69
2022/02/04 07:29:07;;;;;;;36.33;21.67;;;;;;;5.17;100.00;100124.06;5039457;57;1143339;-70
2022/02/04 07:34:23;;;;;;;33.57;20.40;;;;;;;5.18;100.00;100124.91;5037741;58;1143256;-69
2022/02/04 07:44:47;;;;;;;135.10;80.47;;;;;;;5.18;100.00;100120.52;5124444;57;1145229;-70
2022/02/04 07:49:52;;;;;;;254.67;200.10;;;;;;;5.21;100.00;100126.84;5153435;56;1145357;-68
2022/02/04 07:54:58;;;;;;;119.75;87.42;;;;;;;5.24;100.00;100125.83;5152805;56;1145258;-71
2022/02/04 08:00:05;;;;;;;39.50;25.77;;;;;;;5.27;100.00;100126.95;5152298;56;1143453;-70
2022/02/04 08:05:18;;;;;;;91.57;78.87;;;;;;;5.29;100.00;100127.23;5148684;56;1141107;-69
2022/02/04 08:10:31;;;;;;;200.77;80.70;;;;;;;5.32;100.00;100131.92;5150255;57;1141189;-69
2022/02/04 08:21:16;;;;;;;83.33;32.88;;;;;;;5.33;100.00;100138.38;5129345;56;1141115;-71
2022/02/04 08:26:44;;;;;;;107.40;49.30;;;;;;;5.33;100.00;100135.77;5188478;56;1141019;-69
2022/02/04 08:31:54;;;;;;;39.77;21.20;;;;;;;5.34;100.00;100126.95;5243977;56;1143472;-72
2022/02/04 08:37:43;;;;;;;145.87;42.70;;;;;;;5.38;100.00;100135.45;5125873;57;1143194;-69
2022/02/04 08:52:45;;;;;;;50.93;25.90;;;;;;;5.42;100.00;100146.13;5153060;56;1143435;-71
2022/02/04 09:03:00;;;;;;;31.17;19.70;;;;;;;5.50;100.00;100143.39;5228186;56;1143280;-73
2022/02/04 09:08:29;;;;;;;30.27;19.80;;;;;;;5.53;100.00;100143.20;5232804;56;1143231;-72
2022/02/04 09:18:37;;;;;;;27.40;15.90;;;;;;;5.58;100.00;100132.43;5241077;56;1143200;-71
2022/02/04 09:23:41;;;;;;;35.80;21.93;;;;;;;5.56;100.00;100138.24;5206962;55;1143461;-69
2022/02/04 09:28:47;;;;;;;45.30;20.77;;;;;;;5.57;100.00;100132.91;5154395;56;1143548;-70
2022/02/04 09:33:53;;;;;;;44.97;22.97;;;;;;;5.60;100.00;100129.25;5153406;57;1143133;-70
2022/02/04 09:39:02;;;;;;;63.35;29.12;;;;;;;5.63;100.00;100129.06;5153647;56;1143498;-72
2022/02/04 09:44:07;;;;;;;48.57;23.43;;;;;;;5.65;100.00;100132.43;5153941;57;1143525;-70
2022/02/04 09:49:41;;;;;;;40.27;22.07;;;;;;;5.66;100.00;100129.69;5154023;56;1143233;-70
2022/02/04 10:16:53;;;;;;;25.33;17.23;;;;;;;5.65;100.00;100121.94;5330487;55;1140717;-68
2022/02/04 10:21:42;;;;;;;28.73;18.90;;;;;;;5.65;100.00;100123.25;5319808;55;1141419;-70
2022/02/04 10:26:48;;;;;;;111.60;43.10;;;;;;;5.64;100.00;100118.94;5241422;56;1141002;-73
2022/02/04 10:31:55;;;;;;;103.23;35.30;;;;;;;5.65;100.00;100114.06;5249460;55;1143357;-70
2022/02/04 10:37:04;;;;;;;94.53;32.90;;;;;;;5.65;100.00;100105.70;5277265;55;1141466;-70
2022/02/04 10:48:01;;;;;;;57.73;21.80;;;;;;;5.70;100.00;100094.08;5241981;56;1145205;-68
2022/02/04 10:58:31;;;;;;;37.27;21.10;;;;;;;5.71;100.00;100090.05;5241030;56;1143196;-71
2022/02/04 11:03:26;;;;;;;35.58;17.00;;;;;;;5.66;100.00;100079.84;5237172;56;1143215;-72
2022/02/04 11:35:30;;;;;;;38.43;19.30;;;;;;;5.74;100.00;100047.88;5229569;56;1143160;-70
2022/02/04 11:57:01;;;;;;;38.23;18.03;;;;;;;5.88;100.00;100032.09;5120192;56;1141554;-67
2022/02/04 12:02:30;;;;;;;28.43;16.97;;;;;;;5.92;100.00;100027.49;5018377;58;1141573;-69
2022/02/04 12:07:45;;;;;;;24.47;14.80;;;;;;;5.94;100.00;100032.17;5043707;58;1143291;-69
2022/02/04 12:13:02;;;;;;;37.27;21.23;;;;;;;5.93;100.00;100019.52;4955289;57;1143328;-67
2022/02/04 12:18:09;;;;;;;49.13;22.57;;;;;;;5.97;100.00;100014.88;4990814;57;1143266;-67
2022/02/04 12:23:41;;;;;;;36.90;18.63;;;;;;;5.97;100.00;100001.29;5051956;58;1143397;-67
2022/02/04 12:28:55;;;;;;;33.47;20.00;;;;;;;5.99;100.00;100009.91;4867082;59;1143352;-70
2022/02/04 12:34:24;;;;;;;86.10;36.97;;;;;;;6.00;100.00;100008.12;4891360;60;1143316;-69
2022/02/04 12:39:33;;;;;;;30.70;17.53;;;;;;;6.03;100.00;100001.83;4993331;58;1143235;-75
2022/02/04 12:44:42;;;;;;;48.47;26.57;;;;;;;6.02;100.00;99988.34;5091559;57;1143424;-76
2022/02/04 12:49:58;;;;;;;29.77;16.10;;;;;;;6.04;100.00;99984.67;5065988;58;1141212;-81
2022/02/04 12:55:09;;;;;;;25.80;13.63;;;;;;;6.08;100.00;99982.22;5023986;58;1141130;-81
2022/02/04 13:11:08;;;;;;;20.97;12.67;;;;;;;6.13;100.00;99968.28;5062402;58;1141344;-80
2022/02/04 13:16:29;;;;;;;35.73;15.23;;;;;;;6.12;100.00;99955.26;5176318;57;1138644;-84
2022/02/04 13:21:37;;;;;;;25.50;13.00;;;;;;;6.11;100.00;99958.35;5134877;57;1139140;-73
2022/02/04 13:26:42;;;;;;;34.90;16.87;;;;;;;6.15;100.00;99952.43;5151821;57;1139007;-69
2022/02/04 13:31:48;;;;;;;36.43;18.03;;;;;;;6.16;100.00;99950.17;5124090;57;1139138;-69
2022/02/04 13:37:01;;;;;;;26.17;12.73;;;;;;;6.15;100.00;99937.52;5188406;56;1138923;-69
2022/02/04 13:47:34;;;;;;;30.97;15.77;;;;;;;6.17;100.00;99921.19;5160150;56;1138985;-74
2022/02/04 13:57:52;;;;;;;26.37;12.97;;;;;;;6.21;100.00;99924.45;5147728;57;1136927;-70
2022/02/04 14:02:57;;;;;;;32.67;15.53;;;;;;;6.22;100.00;99923.51;5227653;56;1141101;-69
2022/02/04 14:08:12;;;;;;;15.63;11.20;;;;;;;6.24;100.00;99925.56;5180761;56;1141223;-73
2022/02/04 14:13:27;;;;;;;18.53;10.57;;;;;;;6.22;100.00;99917.78;5217881;55;1141004;-67
2022/02/04 14:18:35;;;;;;;27.17;14.53;;;;;;;6.23;100.00;99919.47;5279279;55;1141173;-70
2022/02/04 14:23:41;;;;;;;33.33;24.20;;;;;;;6.22;100.00;99916.95;5191349;56;1141638;-69
2022/02/04 14:28:55;;;;;;;37.07;24.93;;;;;;;6.20;100.00;99917.52;5240342;55;1141167;-69
2022/02/04 15:01:02;;;;;;;60.33;34.13;;;;;;;6.15;100.00;99897.30;5156043;56;1141181;-70
2022/02/04 15:06:10;;;;;;;57.80;25.95;;;;;;;6.16;100.00;99897.66;5186252;56;1141642;-69
2022/02/04 15:11:18;;;;;;;36.03;16.60;;;;;;;6.15;100.00;99898.61;5198997;56;1141167;-70
2022/02/04 15:16:23;;;;;;;31.83;14.07;;;;;;;6.14;100.00;99889.89;5160263;57;1141141;-69
2022/02/04 15:21:29;;;;;;;28.77;13.60;;;;;;;6.13;100.00;99887.37;5193451;57;1139260;-70
2022/02/04 15:26:35;;;;;;;59.87;21.10;;;;;;;6.12;100.00;99874.72;5183659;56;1139241;-70
2022/02/04 15:31:45;;;;;;;35.47;16.47;;;;;;;6.10;100.00;99871.38;5202839;57;1139112;-75
2022/02/04 15:36:49;;;;;;;182.73;82.00;;;;;;;6.11;100.00;99869.09;5166873;56;1139043;-69
2022/02/04 15:41:58;;;;;;;84.40;37.33;;;;;;;6.11;100.00;99865.16;5097878;55;1141388;-72
2022/02/04 15:47:20;;;;;;;147.77;62.37;;;;;;;6.11;100.00;99857.28;5240998;56;1138980;-70
2022/02/04 16:08:09;;;;;;;43.77;17.37;;;;;;;6.06;100.00;99824.44;5205888;57;1137129;-68
2022/02/04 16:13:29;;;;;;;75.07;33.03;;;;;;;6.02;100.00;99820.34;5206060;57;1137331;-72
2022/02/04 16:18:27;;;;;;;167.90;45.50;;;;;;;6.04;100.00;99821.08;5202704;57;1141092;-70
2022/02/04 16:28:43;;;;;;;32.97;12.87;;;;;;;6.02;100.00;99813.78;5164448;57;1141146;-68
2022/02/04 16:33:50;;;;;;;34.90;15.50;;;;;;;5.98;100.00;99811.84;5205870;57;1141055;-70
2022/02/04 16:38:56;;;;;;;41.70;22.97;;;;;;;5.98;100.00;99813.15;5205816;57;1141098;-71
2022/02/04 16:44:02;;;;;;;79.20;35.67;;;;;;;5.98;100.00;99807.90;5205885;57;1141205;-69
2022/02/04 16:49:08;;;;;;;155.40;65.10;;;;;;;5.96;100.00;99803.23;5205925;57;1141293;-75
2022/02/04 16:54:16;;;;;;;74.27;23.22;;;;;;;5.93;100.00;99800.84;5133651;57;1143442;-69
2022/02/04 16:59:22;;;;;;;66.13;27.63;;;;;;;5.94;100.00;99796.80;5098617;56;1141084;-70
2022/02/04 17:04:28;;;;;;;35.37;13.50;;;;;;;5.93;100.00;99789.03;5174949;57;1141135;-68
2022/02/04 17:09:39;;;;;;;29.97;13.10;;;;;;;5.88;100.00;99780.16;5205840;57;1141156;-69
2022/02/04 17:14:41;;;;;;;19.97;9.00;;;;;;;5.87;100.00;99769.27;5205332;57;1141356;-71
2022/02/04 17:19:53;;;;;;;23.93;12.23;;;;;;;5.87;100.00;99760.08;5205823;57;1139031;-73
2022/02/04 17:24:55;;;;;;;23.73;10.63;;;;;;;5.87;100.00;99753.98;5175042;56;1141047;-73
2022/02/04 17:30:00;;;;;;;22.77;10.63;;;;;;;5.85;100.00;99747.53;5178436;57;1141092;-70
2022/02/04 17:35:09;;;;;;;19.77;10.97;;;;;;;5.86;100.00;99749.69;5205730;56;1141097;-70
2022/02/04 17:40:17;;;;;;;16.97;8.83;;;;;;;5.86;100.00;99751.00;5205360;57;1140934;-71
2022/02/04 17:45:23;;;;;;;31.10;17.20;;;;;;;5.84;100.00;99737.14;5197418;57;1139027;-73
2022/02/04 17:50:33;;;;;;;24.80;16.23;;;;;;;5.84;100.00;99743.23;5194334;57;1141165;-73
2022/02/04 17:55:53;;;;;;;20.40;11.80;;;;;;;5.86;100.00;99740.03;5193797;57;1141199;-69
2022/02/04 18:01:12;;;;;;;16.60;10.60;;;;;;;5.88;100.00;99734.67;5190179;56;1141105;-73
2022/02/04 18:06:27;;;;;;;17.17;10.43;;;;;;;5.88;100.00;99738.17;5174153;57;1141301;-69
2022/02/04 18:11:21;;;;;;;17.20;8.40;;;;;;;5.90;100.00;99731.03;4968512;59;1141069;-72
2022/02/04 18:16:26;;;;;;;21.83;11.63;;;;;;;5.93;100.00;99724.73;5065521;58;1139354;-67
2022/02/04 18:21:32;;;;;;;30.50;15.43;;;;;;;5.98;100.00;99716.88;5123203;57;1141361;-68
2022/02/04 18:26:38;;;;;;;19.53;11.67;;;;;;;5.98;100.00;99709.48;5063765;58;1141089;-66
2022/02/04 18:31:45;;;;;;;16.07;8.53;;;;;;;5.97;100.00;99710.42;5124081;56;1141157;-71
2022/02/04 18:36:54;;;;;;;22.67;11.23;;;;;;;5.95;100.00;99708.41;5061494;57;1139111;-72
2022/02/04 18:42:28;;;;;;;23.30;10.27;;;;;;;5.95;100.00;99705.31;5196567;56;1141164;-71
2022/02/04 18:47:31;;;;;;;20.67;11.13;;;;;;;5.94;100.00;99691.83;5117606;57;1139053;-73
2022/02/04 18:52:41;;;;;;;21.03;10.30;;;;;;;5.95;100.00;99685.62;5150237;57;1139036;-73
2022/02/04 18:57:42;;;;;;;;;;;;;;;5.94;100.00;99689.67;5148981;57;1139076;-69
2022/02/04 19:02:52;;;;;;;28.30;11.70;;;;;;;5.93;100.00;99682.74;5205655;56;972219;-72
2022/02/04 19:08:11;;;;;;;34.07;17.63;;;;;;;5.92;100.00;99671.41;5194247;57;1136960;-69
2022/02/04 19:13:09;;;;;;;27.60;11.53;;;;;;;5.94;100.00;99659.49;5158958;57;1138982;-73
2022/02/04 19:18:18;;;;;;;22.73;9.33;;;;;;;5.91;100.00;99651.36;5147934;57;1139192;-74
2022/02/04 19:23:24;;;;;;;20.83;7.90;;;;;;;5.90;100.00;99643.13;5115483;57;1136952;-71
2022/02/04 19:28:27;;;;;;;23.93;10.37;;;;;;;5.89;100.00;99641.92;5079542;57;1137056;-79
2022/02/04 19:33:33;;;;;;;34.63;14.77;;;;;;;5.91;100.00;99654.45;5176899;56;1139314;-76
2022/02/04 19:38:40;;;;;;;17.10;8.17;;;;;;;5.92;100.00;99646.48;5158021;56;1139020;-78
2022/02/04 19:43:49;;;;;;;50.00;18.17;;;;;;;5.94;100.00;99645.89;5205348;56;1136932;-81
2022/02/04 19:48:56;;;;;;;35.33;11.57;;;;;;;5.97;100.00;99640.40;5204930;57;1137015;-72
2022/02/04 20:26:02;;;;;;;12.33;6.03;;;;;;;6.07;100.00;99588.09;5240909;56;1139052;-74
2022/02/04 20:31:08;;;;;;;11.17;5.93;;;;;;;6.07;100.00;99580.22;5241203;56;1137015;-81
2022/02/04 20:36:15;;;;;;;5.73;4.03;;;;;;;6.08;100.00;99565.30;5237378;55;1139033;-75
2022/02/04 20:41:22;;;;;;;15.57;7.03;;;;;;;6.07;100.00;99557.06;5243757;55;1136912;-79
2022/02/04 20:46:30;;;;;;;15.55;6.97;;;;;;;6.08;100.00;99558.74;5234775;56;1139050;-77
2022/02/04 20:51:36;;;;;;;9.90;4.97;;;;;;;6.07;100.00;99545.25;5146455;57;1136990;-74
2022/02/04 20:56:43;;;;;;;13.43;5.47;;;;;;;6.07;100.00;99535.59;5168224;56;1136947;-83
2022/02/04 21:01:51;;;;;;;19.07;8.10;;;;;;;6.07;100.00;99528.19;5218536;56;1139042;-79
2022/02/04 21:07:02;;;;;;;16.77;6.63;;;;;;;6.08;100.00;99527.24;5196065;56;1139205;-72
2022/02/04 21:17:33;;;;;;;21.05;7.87;;;;;;;6.09;100.00;99518.42;5155690;57;1139151;-79
2022/02/04 21:22:39;;;;;;;43.37;11.23;;;;;;;6.06;100.00;99487.14;5147187;57;1139092;-82
2022/02/04 21:27:48;;;;;;;23.93;7.70;;;;;;;6.12;100.00;99493.22;5158244;56;1138964;-81
2022/02/04 21:32:55;;;;;;;18.70;7.20;;;;;;;6.12;100.00;99490.59;5201175;55;1134842;-70
2022/02/04 21:38:01;;;;;;;12.03;5.83;;;;;;;6.13;100.00;99485.72;5225177;55;1136812;-72
2022/02/04 21:43:07;;;;;;;15.27;4.63;;;;;;;6.14;100.00;99485.60;5237577;55;1136935;-78
2022/02/04 21:48:14;;;;;;;14.40;5.37;;;;;;;6.11;100.00;99479.27;5189681;56;1135031;-80
2022/02/04 21:53:20;;;;;;;5.30;3.37;;;;;;;6.14;100.00;99474.26;5196381;56;1136974;-74
2022/02/04 21:58:26;;;;;;;9.67;4.37;;;;;;;6.10;100.00;99446.12;5151854;56;1134925;-74
2022/02/04 22:03:32;;;;;;;8.70;4.05;;;;;;;6.10;100.00;99446.12;5153455;56;1134907;-76
2022/02/04 22:08:51;;;;;;;9.63;3.87;;;;;;;6.12;100.00;99452.06;5153576;56;1132775;-80
2022/02/04 22:22:02;;;;;;;6.80;3.80;;;;;;;6.13;100.00;99428.80;5157555;57;1132775;-81
2022/02/04 22:24:35;;;;;;;10.00;4.63;;;;;;;6.17;100.00;99435.97;5125334;56;1136927;-77
2022/02/04 22:29:55;;;;;;;5.83;3.07;;;;;;;6.14;100.00;99433.58;5164183;56;1137048;-76
2022/02/04 22:35:08;;;;;;;7.25;4.12;;;;;;;6.15;100.00;99424.27;5163183;56;1134897;-77
2022/02/04 22:50:48;;;;;;;8.60;4.20;;;;;;;6.16;100.00;99400.17;5148290;57;1134822;-75
2022/02/04 22:56:08;;;;;;;5.80;3.52;;;;;;;6.16;100.00;99382.63;5084818;57;1136925;-76
2022/02/04 23:00:58;;;;;;;6.07;3.20;;;;;;;6.17;100.00;99371.66;5073347;58;1137235;-72
2022/02/04 23:06:03;;;;;;;8.27;3.00;;;;;;;6.15;100.00;99359.95;5273269;55;1134858;-73
2022/02/04 23:11:09;;;;;;;5.43;3.23;;;;;;;6.17;100.00;99361.15;5293806;55;1134853;-80
2022/02/04 23:16:21;;;;;;;6.07;3.60;;;;;;;6.17;100.00;99350.66;5292111;56;1136909;-74
2022/02/04 23:21:30;;;;;;;8.80;5.07;;;;;;;6.12;100.00;99348.38;5203687;57;1136913;-81
2022/02/04 23:26:41;;;;;;;8.13;3.87;;;;;;;6.14;100.00;99349.09;5161047;56;1137146;-77
2022/02/04 23:53:12;;;;;;;4.50;2.25;;;;;;;6.13;100.00;99354.46;5181778;56;1132789;-72
2022/02/04 23:58:18;;;;;;;7.47;3.30;;;;;;;6.01;100.00;99328.70;5169245;55;1132849;-71
